Time;durP1;ratioP1;P1;durP2;ratioP2;P2;SDS_P1;SDS_P2;PMS_P1;PMS_P2;Temp;Humidity;BMP_temperature;BMP_pressure;BME280_temperature;BME280_humidity;BME280_pressure;Samples;Min_cycle;Max_cycle;Signal;HPM_P1;HPM_P2
2023/04/25 08:05:45;;;;;;;7.50;1.98;;;;;;;7.14;90.34;101221.16;5126012;27;20388;-71
2023/04/25 08:08:10;;;;;;;10.18;2.50;;;;;;;7.19;87.49;101223.28;5095011;28;20097;-71
2023/04/25 08:10:36;;;;;;;14.80;2.33;;;;;;;7.22;87.70;101228.28;5109965;28;20055;-70
2023/04/25 08:13:01;;;;;;;11.35;2.20;;;;;;;7.28;86.44;101227.50;5110419;28;20024;-68
2023/04/25 08:15:26;;;;;;;7.20;2.10;;;;;;;7.33;89.33;101229.59;5110126;28;20123;-70
2023/04/25 08:17:52;;;;;;;12.27;2.30;;;;;;;7.37;84.77;101225.50;5108485;28;20069;-68
2023/04/25 08:20:17;;;;;;;11.85;2.28;;;;;;;7.41;87.73;101243.75;5108152;28;20081;-69
2023/04/25 08:22:43;;;;;;;12.43;3.00;;;;;;;7.43;88.88;101246.25;5109892;28;20028;-71
2023/04/25 08:25:08;;;;;;;10.60;2.30;;;;;;;7.39;84.63;101243.09;5110132;28;20422;-72
2023/04/25 08:27:33;;;;;;;14.80;2.75;;;;;;;7.41;89.55;101254.53;5107636;28;20024;-70
2023/04/25 08:29:59;;;;;;;10.02;2.22;;;;;;;7.49;88.74;101266.16;5110069;28;20038;-71
2023/04/25 08:32:25;;;;;;;10.63;2.40;;;;;;;7.50;85.56;101252.50;5108543;28;20044;-74
2023/04/25 08:34:53;;;;;;;12.20;2.50;;;;;;;7.55;80.82;101266.25;5107858;28;20118;-73
2023/04/25 08:37:19;;;;;;;12.15;2.53;;;;;;;7.60;83.00;101269.16;5109012;28;20479;-74
2023/04/25 08:39:45;;;;;;;11.93;2.20;;;;;;;7.62;78.61;101267.13;5109966;28;20054;-72
2023/04/25 08:42:12;;;;;;;13.38;3.33;;;;;;;7.63;81.66;101276.03;5109988;28;20049;-71
2023/04/25 08:44:40;;;;;;;16.90;3.05;;;;;;;7.62;85.75;101266.28;5108408;28;20074;-73
2023/04/25 08:47:06;;;;;;;9.15;2.38;;;;;;;7.70;83.43;101274.25;5109927;28;20093;-72
2023/04/25 08:49:34;;;;;;;13.45;3.05;;;;;;;7.79;85.26;101277.63;5104250;28;20063;-74
2023/04/25 08:52:03;;;;;;;9.98;2.60;;;;;;;7.77;83.52;101283.19;5107836;28;20576;-72
2023/04/25 08:54:31;;;;;;;9.55;2.55;;;;;;;7.74;86.57;101277.34;5108197;28;20026;-73
2023/04/25 08:56:57;;;;;;;11.88;2.35;;;;;;;7.75;87.25;101284.44;5109608;28;20203;-72
2023/04/25 08:59:23;;;;;;;11.40;2.85;;;;;;;7.78;90.71;101292.13;5109346;28;20031;-71
2023/04/25 09:01:49;;;;;;;11.35;2.20;;;;;;;7.85;81.92;101298.38;5107031;28;20027;-72
2023/04/25 09:04:15;;;;;;;6.78;1.80;;;;;;;7.85;75.27;101313.72;5107726;28;20060;-73
2023/04/25 09:06:41;;;;;;;10.65;2.88;;;;;;;7.79;76.00;101318.03;5106013;28;20040;-72
2023/04/25 09:09:08;;;;;;;9.85;2.20;;;;;;;7.87;78.58;101320.56;5108252;28;20040;-74
2023/04/25 09:11:35;;;;;;;7.03;2.10;;;;;;;7.88;76.45;101319.56;5107703;28;20402;-75
2023/04/25 09:14:12;;;;;;;12.45;2.20;;;;;;;7.98;82.67;101322.72;5108990;28;20039;-73
2023/04/25 09:16:56;;;;;;;9.63;1.98;;;;;;;8.07;79.55;101336.88;5098094;28;20032;-71
2023/04/25 09:19:25;;;;;;;9.00;2.35;;;;;;;8.08;71.06;101337.75;5094168;28;20051;-74
2023/04/25 09:21:53;;;;;;;8.73;2.25;;;;;;;8.04;72.83;101339.16;5093112;28;20032;-74
2023/04/25 09:24:34;;;;;;;16.60;2.63;;;;;;;8.07;73.28;101341.44;5091761;28;20024;-72
2023/04/25 09:27:01;;;;;;;12.50;2.40;;;;;;;8.12;70.90;101352.47;5095334;28;20024;-74
2023/04/25 09:29:31;;;;;;;8.70;3.35;;;;;;;8.20;72.20;101344.25;5095214;28;20578;-75
2023/04/25 09:32:26;;;;;;;6.53;2.10;;;;;;;8.33;73.98;101352.44;5094057;28;20053;-73
2023/04/25 09:34:53;;;;;;;6.63;2.00;;;;;;;8.36;68.90;101356.56;5085220;28;20059;-75
2023/04/25 09:37:24;;;;;;;6.35;1.90;;;;;;;8.45;66.48;101350.00;5094742;28;20103;-75
2023/04/25 09:39:53;;;;;;;9.57;2.20;;;;;;;8.40;68.13;101346.25;5092961;28;20035;-71
2023/04/25 09:42:23;;;;;;;7.15;2.00;;;;;;;8.39;65.54;101348.09;5094933;28;20031;-76
2023/04/25 09:44:51;;;;;;;7.60;2.45;;;;;;;8.42;65.51;101349.56;5094774;28;20045;-73
2023/04/25 09:47:17;;;;;;;14.15;2.08;;;;;;;8.54;69.22;101345.28;5093735;28;20036;-73
2023/04/25 09:49:43;;;;;;;12.55;2.50;;;;;;;8.77;70.88;101355.81;5093167;28;20035;-71
2023/04/25 09:52:13;;;;;;;8.57;2.55;;;;;;;8.80;66.69;101354.56;5093706;28;20028;-72
2023/04/25 09:54:39;;;;;;;8.93;2.13;;;;;;;8.75;65.86;101347.06;5091677;28;20502;-75
2023/04/25 09:57:12;;;;;;;8.93;2.25;;;;;;;8.71;66.14;101358.47;5094001;28;20106;-75
2023/04/25 09:59:42;;;;;;;12.30;2.40;;;;;;;8.62;68.73;101361.34;5094267;28;20111;-72
2023/04/25 10:02:09;;;;;;;13.00;2.20;;;;;;;8.56;66.00;101359.44;5092761;28;20039;-74
2023/04/25 10:04:35;;;;;;;8.05;2.42;;;;;;;8.49;64.00;101363.97;5093802;28;20048;-70
2023/04/25 10:07:03;;;;;;;10.65;2.85;;;;;;;8.48;66.63;101352.34;5093165;28;20074;-75
2023/04/25 10:09:31;;;;;;;8.10;2.22;;;;;;;8.54;67.10;101356.09;5091979;28;20119;-71
2023/04/25 10:11:58;;;;;;;6.45;2.13;;;;;;;8.73;66.68;101359.09;5091270;28;20032;-71
2023/04/25 10:14:24;;;;;;;7.75;3.08;;;;;;;8.85;62.92;101360.19;5092966;28;20031;-72
2023/04/25 10:16:53;;;;;;;6.82;1.88;;;;;;;8.84;61.05;101358.53;5094566;28;20028;-69
2023/04/25 10:19:19;;;;;;;7.53;2.20;;;;;;;8.92;59.54;101363.72;5094450;28;20024;-72
2023/04/25 10:21:55;;;;;;;10.70;1.70;;;;;;;8.96;59.19;101359.59;5093906;28;20032;-73
2023/04/25 10:24:21;;;;;;;6.53;1.60;;;;;;;9.03;58.80;101354.25;5093905;28;20123;-77
2023/04/25 10:26:48;;;;;;;7.38;2.03;;;;;;;9.11;58.82;101356.75;5090293;28;20113;-72
2023/04/25 10:29:22;;;;;;;4.85;1.58;;;;;;;9.24;58.96;101358.69;5092494;28;20036;-74
2023/04/25 10:31:47;;;;;;;5.22;1.40;;;;;;;9.25;54.44;101363.03;5091672;28;20040;-74
2023/04/25 10:34:13;;;;;;;9.10;1.65;;;;;;;9.22;53.40;101355.31;5092011;28;20098;-78
2023/04/25 10:36:39;;;;;;;5.70;1.65;;;;;;;9.18;54.26;101373.00;5092333;28;20024;-71
2023/04/25 10:39:08;;;;;;;4.45;1.40;;;;;;;9.13;55.15;101370.06;5092686;28;20459;-77
2023/04/25 10:41:46;;;;;;;6.72;1.50;;;;;;;9.19;56.80;101380.03;5092674;28;20028;-74
2023/04/25 10:44:13;;;;;;;8.27;1.83;;;;;;;9.16;56.76;101375.03;5092676;28;20063;-74
2023/04/25 10:46:39;;;;;;;7.28;1.42;;;;;;;9.19;56.62;101369.25;5091026;28;20106;-75
2023/04/25 10:49:04;;;;;;;5.85;1.90;;;;;;;9.28;57.18;101373.41;5092547;28;20134;-71
2023/04/25 10:51:34;;;;;;;5.82;1.92;;;;;;;9.32;57.66;101377.38;5092245;28;20020;-72
2023/04/25 10:54:01;;;;;;;10.05;1.90;;;;;;;9.39;58.29;101369.28;5093579;28;20379;-73
2023/04/25 10:56:37;;;;;;;7.93;1.70;;;;;;;9.54;59.62;101377.22;5092154;28;20640;-71
2023/04/25 10:59:13;;;;;;;9.27;1.92;;;;;;;9.71;59.21;101367.69;5091434;28;20028;-71
2023/04/25 11:01:38;;;;;;;4.38;1.92;;;;;;;9.64;55.38;101374.94;5090402;28;20028;-75
2023/04/25 11:04:04;;;;;;;7.93;1.95;;;;;;;9.49;56.01;101366.19;5093133;28;20048;-75
2023/04/25 11:06:37;;;;;;;9.43;2.17;;;;;;;9.42;58.14;101378.84;5092332;28;20106;-76
2023/04/25 11:09:08;;;;;;;6.22;1.92;;;;;;;9.28;58.95;101383.41;5093154;28;20032;-74
2023/04/25 11:11:36;;;;;;;;;;;;;;;9.45;58.97;101386.56;5092390;28;20090;-73
2023/04/25 11:14:01;;;;;;;14.30;2.42;;;;;;;9.14;59.49;101379.81;5093404;28;19912;-75
2023/04/25 11:16:26;;;;;;;6.40;2.05;;;;;;;9.04;61.72;101380.19;5092927;28;20020;-73
2023/04/25 11:18:52;;;;;;;6.25;1.70;;;;;;;8.95;61.92;101390.34;5092060;28;20414;-73
2023/04/25 11:21:17;;;;;;;6.63;1.70;;;;;;;8.78;62.91;101400.63;5091991;28;20475;-74
2023/04/25 11:23:46;;;;;;;10.55;1.63;;;;;;;8.59;62.55;101410.28;5091166;28;20042;-72
2023/04/25 11:26:12;;;;;;;5.38;1.65;;;;;;;8.38;64.64;101416.56;5089930;28;20036;-78
2023/04/25 11:28:37;;;;;;;5.97;1.80;;;;;;;8.36;64.32;101409.69;5087492;28;20035;-74
2023/04/25 11:31:04;;;;;;;6.65;1.90;;;;;;;8.23;65.45;101413.94;5093126;28;20024;-75
2023/04/25 11:33:29;;;;;;;9.70;1.92;;;;;;;8.24;65.65;101415.59;5092746;28;20395;-76
2023/04/25 11:35:56;;;;;;;5.57;1.83;;;;;;;8.21;64.66;101424.06;5091488;28;20028;-73
2023/04/25 11:38:22;;;;;;;7.57;1.90;;;;;;;8.24;65.74;101412.06;5087531;28;20039;-73
2023/04/25 11:40:54;;;;;;;6.25;1.75;;;;;;;8.27;61.98;101412.53;5092531;28;20375;-75
2023/04/25 11:43:22;;;;;;;4.57;1.42;;;;;;;8.41;62.60;101420.69;5096763;28;20077;-75
2023/04/25 11:45:50;;;;;;;5.32;1.60;;;;;;;8.65;60.26;101416.75;5101568;28;20406;-72
2023/04/25 11:48:15;;;;;;;4.43;1.42;;;;;;;8.84;60.89;101420.59;5092701;28;20467;-74
2023/04/25 11:50:41;;;;;;;6.22;1.58;;;;;;;9.04;61.09;101415.28;5086877;28;20032;-70
2023/04/25 11:53:08;;;;;;;8.10;1.80;;;;;;;9.17;61.46;101404.53;5092698;28;20063;-72
2023/04/25 11:55:33;;;;;;;5.43;1.70;;;;;;;9.16;59.23;101412.84;5087662;28;20043;-75
2023/04/25 11:58:00;;;;;;;5.00;1.30;;;;;;;9.18;60.61;101410.81;5101734;28;20024;-78
2023/04/25 12:00:26;;;;;;;4.28;1.60;;;;;;;9.28;59.36;101418.50;5109634;28;20471;-74
2023/04/25 12:02:54;;;;;;;9.65;1.50;;;;;;;9.47;59.30;101415.03;5099716;28;20388;-76
2023/04/25 12:05:23;;;;;;;6.07;1.52;;;;;;;9.63;56.96;101416.53;5087422;28;21583;-75
2023/04/25 12:07:48;;;;;;;5.75;1.42;;;;;;;9.79;56.79;101411.78;5090778;28;20036;-77
2023/04/25 12:10:16;;;;;;;5.15;1.63;;;;;;;9.90;56.39;101422.81;5089560;28;20083;-76
2023/04/25 12:12:42;;;;;;;4.85;1.40;;;;;;;9.73;52.31;101432.34;5087591;28;20462;-74
2023/04/25 12:15:23;;;;;;;3.67;1.00;;;;;;;9.57;53.27;101437.09;5090979;28;20032;-73
2023/04/25 12:17:50;;;;;;;3.08;1.00;;;;;;;9.40;52.43;101431.25;5089403;28;20047;-70
2023/04/25 12:20:17;;;;;;;3.90;1.20;;;;;;;9.40;51.78;101420.44;5086960;28;20032;-73
2023/04/25 12:22:45;;;;;;;3.92;1.40;;;;;;;9.68;52.76;101424.84;5091049;28;20061;-75
2023/04/25 12:25:12;;;;;;;5.13;1.10;;;;;;;9.93;48.75;101427.81;5091112;28;20035;-74
2023/04/25 12:27:40;;;;;;;3.35;1.08;;;;;;;10.09;49.32;101423.84;5092060;28;20032;-74
2023/04/25 12:30:07;;;;;;;2.35;1.00;;;;;;;10.28;47.24;101432.16;5090970;28;20471;-72
2023/04/25 12:32:32;;;;;;;7.35;1.25;;;;;;;10.35;46.05;101433.03;5090577;28;20127;-73
2023/04/25 12:34:57;;;;;;;3.28;1.20;;;;;;;10.42;47.83;101438.47;5092148;28;20052;-73
2023/04/25 12:37:23;;;;;;;4.85;1.00;;;;;;;10.53;47.99;101429.69;5092425;28;20393;-71
2023/04/25 12:39:48;;;;;;;3.20;1.20;;;;;;;10.77;47.33;101432.78;5088856;28;20060;-72
2023/04/25 12:42:13;;;;;;;4.15;1.30;;;;;;;10.81;47.60;101440.25;5087894;28;20089;-75
2023/04/25 12:44:39;;;;;;;5.13;1.20;;;;;;;10.84;48.85;101435.44;5092008;28;20475;-70
2023/04/25 12:47:05;;;;;;;4.45;1.38;;;;;;;10.78;50.41;101437.16;5092261;28;20028;-76
2023/04/25 12:49:31;;;;;;;4.82;1.20;;;;;;;10.53;47.96;101455.94;5090733;28;20028;-73
2023/04/25 12:51:56;;;;;;;8.13;1.55;;;;;;;10.37;48.44;101454.47;5094215;28;20043;-74
2023/04/25 12:54:22;;;;;;;5.18;1.55;;;;;;;10.26;46.40;101453.19;5093658;28;20524;-73
2023/04/25 12:56:47;;;;;;;5.72;1.25;;;;;;;10.43;48.31;101440.94;5094097;28;20539;-75
2023/04/25 12:59:16;;;;;;;3.10;1.20;;;;;;;10.65;47.20;101448.81;5096015;28;20107;-74
2023/04/25 13:02:07;;;;;;;6.53;1.65;;;;;;;10.90;51.99;101453.56;5092403;28;20032;-76
2023/04/25 13:04:39;;;;;;;20.27;2.60;;;;;;;10.67;52.54;101456.72;5092526;28;20051;-76
2023/04/25 13:07:13;;;;;;;9.00;2.00;;;;;;;10.37;53.76;101452.63;5099087;28;20038;-77
2023/04/25 13:09:40;;;;;;;6.00;2.03;;;;;;;10.22;54.53;101458.19;5095698;28;20088;-79
2023/04/25 13:12:06;;;;;;;6.97;1.88;;;;;;;10.27;56.06;101468.38;5096536;28;20521;-74
2023/04/25 13:14:31;;;;;;;5.68;1.75;;;;;;;10.62;57.01;101460.06;5096252;28;20066;-78
2023/04/25 13:16:56;;;;;;;7.63;1.80;;;;;;;10.85;52.98;101465.03;5095195;28;20050;-76
2023/04/25 13:19:22;;;;;;;7.50;1.55;;;;;;;10.97;53.39;101462.50;5094610;28;20097;-78
2023/04/25 13:21:56;;;;;;;5.55;1.48;;;;;;;10.89;51.92;101465.44;5095868;28;20479;-76
2023/04/25 13:24:27;;;;;;;6.70;1.73;;;;;;;10.86;51.91;101468.59;5095278;28;20383;-73
2023/04/25 13:27:26;;;;;;;7.57;1.70;;;;;;;10.86;51.61;101471.28;5094428;28;20044;-76
2023/04/25 13:29:52;;;;;;;8.02;1.90;;;;;;;10.76;51.14;101469.00;5095913;28;20053;-75
2023/04/25 13:32:17;;;;;;;5.03;1.45;;;;;;;10.70;51.13;101469.84;5093066;28;20024;-79
2023/04/25 13:34:43;;;;;;;7.82;2.10;;;;;;;10.62;50.49;101469.00;5093522;28;20448;-76
2023/04/25 13:37:09;;;;;;;6.68;1.83;;;;;;;10.57;49.47;101463.41;5095586;28;20111;-75
2023/04/25 13:39:34;;;;;;;9.20;1.80;;;;;;;10.58;50.66;101458.81;5090147;28;20024;-76
2023/04/25 13:42:00;;;;;;;5.88;1.73;;;;;;;10.82;51.64;101458.19;5095873;28;20114;-76
2023/04/25 13:44:25;;;;;;;6.43;1.90;;;;;;;11.10;50.29;101453.50;5095204;28;20021;-72
2023/04/25 13:46:53;;;;;;;10.02;2.08;;;;;;;11.01;48.15;101452.91;5094230;28;20035;-78
2023/04/25 13:49:19;;;;;;;11.07;2.25;;;;;;;11.13;50.20;101453.91;5096397;28;20031;-75
2023/04/25 13:51:44;;;;;;;6.47;1.80;;;;;;;11.06;49.69;101465.81;5095974;28;20028;-77
2023/04/25 13:54:10;;;;;;;9.60;2.15;;;;;;;11.10;49.60;101467.88;5096169;28;20039;-78
2023/04/25 13:56:35;;;;;;;7.28;1.90;;;;;;;11.04;49.27;101466.03;5096676;28;20039;-80
2023/04/25 13:59:00;;;;;;;7.88;2.05;;;;;;;10.99;49.01;101461.25;5097996;28;20063;-77
2023/04/25 14:01:27;;;;;;;6.75;2.08;;;;;;;10.98;52.27;101459.56;5094959;28;20403;-73
2023/04/25 14:03:53;;;;;;;6.00;1.75;;;;;;;10.84;50.90;101457.09;5095511;28;20091;-74
2023/04/25 14:06:22;;;;;;;7.38;1.63;;;;;;;10.78;51.20;101461.53;5096318;28;20020;-76
2023/04/25 14:08:49;;;;;;;8.70;1.98;;;;;;;10.54;50.69;101466.53;5094035;28;20059;-77
2023/04/25 14:11:14;;;;;;;6.10;1.83;;;;;;;10.40;52.15;101460.31;5097045;28;20542;-74
2023/04/25 14:13:40;;;;;;;9.30;2.15;;;;;;;10.49;52.96;101457.38;5095450;28;20036;-72
2023/04/25 14:16:05;;;;;;;9.93;2.40;;;;;;;10.46;53.88;101459.47;5096822;28;20062;-76
2023/04/25 14:18:30;;;;;;;5.75;1.92;;;;;;;10.43;53.17;101459.91;5095552;28;20116;-76
2023/04/25 14:20:56;;;;;;;7.85;2.30;;;;;;;10.32;52.55;101465.88;5093928;28;20459;-75
2023/04/25 14:23:39;;;;;;;;;;;;;;;;;;;;;
2023/04/25 14:26:15;;;;;;;6.00;1.70;;;;;;;10.14;52.91;101452.97;5089195;28;20036;-77
2023/04/25 14:28:40;;;;;;;7.82;1.83;;;;;;;10.40;53.21;101451.34;5091417;28;20031;-73
2023/04/25 14:31:05;;;;;;;9.10;2.25;;;;;;;10.99;54.02;101463.09;5091405;28;20028;-79
2023/04/25 14:33:30;;;;;;;6.03;1.60;;;;;;;11.77;47.83;101459.44;5090236;28;20144;-79
2023/04/25 14:35:56;;;;;;;11.18;2.05;;;;;;;12.42;47.02;101455.63;5088454;28;20383;-76
2023/04/25 14:38:23;;;;;;;6.43;1.95;;;;;;;12.61;45.47;101459.22;5092858;28;20039;-72
2023/04/25 14:40:49;;;;;;;9.48;1.92;;;;;;;12.80;40.73;101457.34;5092446;28;20035;-79
2023/04/25 14:43:15;;;;;;;5.45;1.73;;;;;;;13.10;39.89;101460.19;5092879;28;20024;-77
2023/04/25 14:45:40;;;;;;;4.10;1.60;;;;;;;12.68;40.46;101456.44;5092334;28;20093;-74
2023/04/25 14:48:08;;;;;;;6.03;1.67;;;;;;;12.13;43.00;101463.38;5093665;28;20039;-73
2023/04/25 14:50:34;;;;;;;6.63;1.50;;;;;;;11.78;42.37;101466.53;5091615;28;20391;-77
2023/04/25 14:53:00;;;;;;;6.15;1.80;;;;;;;11.56;42.51;101481.44;5093471;28;20024;-72
2023/04/25 14:55:29;;;;;;;6.10;1.73;;;;;;;12.39;43.16;101465.09;5092944;28;20067;-73
2023/04/25 14:57:55;;;;;;;6.30;1.60;;;;;;;12.61;41.77;101469.28;5093579;28;20379;-78
2023/04/25 15:00:32;;;;;;;5.55;1.90;;;;;;;12.25;42.66;101462.69;5091372;28;20031;-77
2023/04/25 15:03:12;;;;;;;10.00;2.20;;;;;;;12.38;42.07;101481.59;5092097;28;20024;-75
2023/04/25 15:05:44;;;;;;;5.72;1.52;;;;;;;12.90;42.56;101468.53;5091368;28;20044;-75
2023/04/25 15:08:10;;;;;;;6.20;1.85;;;;;;;13.51;41.52;101467.84;5090212;28;20024;-75
2023/04/25 15:10:44;;;;;;;5.22;1.73;;;;;;;13.60;41.64;101475.50;5086030;28;20028;-76
2023/04/25 15:13:57;;;;;;;3.75;1.70;;;;;;;13.53;42.63;101474.75;5090554;28;20119;-76
2023/04/25 15:17:15;;;;;;;5.47;1.65;;;;;;;14.05;40.93;101476.91;5077187;28;20044;-75
2023/04/25 15:19:45;;;;;;;6.43;1.70;;;;;;;14.35;39.08;101470.59;5089647;28;20043;-75
2023/04/25 15:22:10;;;;;;;7.15;1.40;;;;;;;13.93;38.90;101471.44;5091224;28;20028;-74
2023/04/25 15:24:36;;;;;;;5.78;1.70;;;;;;;13.84;40.68;101478.28;5091022;28;20046;-74
2023/04/25 15:27:08;;;;;;;6.32;1.83;;;;;;;13.49;40.87;101484.41;5092803;28;20028;-75
2023/04/25 15:29:42;;;;;;;8.13;1.80;;;;;;;13.44;42.20;101484.28;5090613;28;20382;-73
2023/04/25 15:32:08;;;;;;;6.80;1.70;;;;;;;13.16;42.69;101491.03;5092553;28;20028;-73
2023/04/25 15:34:33;;;;;;;6.97;1.92;;;;;;;12.65;42.79;101494.91;5091275;28;20024;-74
2023/04/25 15:36:59;;;;;;;7.70;1.90;;;;;;;12.31;44.21;101495.19;5091277;28;20043;-74
2023/04/25 15:39:27;;;;;;;5.93;1.80;;;;;;;12.62;44.37;101503.50;5092330;28;20479;-76
2023/04/25 15:42:29;;;;;;;;;;;;;;;;;;;;;
2023/04/25 15:44:55;;;;;;;6.57;1.90;;;;;;;13.06;43.25;101507.06;5089812;28;20032;-75
2023/04/25 15:47:20;;;;;;;6.40;1.65;;;;;;;13.42;44.13;101506.25;5090744;28;20482;-74
2023/04/25 15:49:46;;;;;;;5.78;1.65;;;;;;;13.64;41.91;101506.56;5087590;28;20034;-75
2023/04/25 15:52:21;;;;;;;5.35;1.60;;;;;;;13.81;42.82;101504.06;5088204;28;20348;-77
2023/04/25 15:54:47;;;;;;;10.93;2.28;;;;;;;13.74;41.09;101503.31;5080439;28;20051;-75
2023/04/25 15:57:12;;;;;;;8.57;1.70;;;;;;;13.56;40.96;101512.34;5090678;28;20046;-77
2023/04/25 15:59:37;;;;;;;8.73;1.73;;;;;;;13.24;42.00;101504.34;5090195;28;20075;-76
